This is the latest recevied weather packets stored in our database for station/object 9M4GHZ-13. If no packets are shown the sender has not sent any weather packets the latest 10 day(s).
| Time | Temp. | Humidity | Pressure | Rain* | Wind** | Luminosity | Snow |
|---|---|---|---|---|---|---|---|
| 1778043005 | 31.67° C | 70% | 1007.4 hPa | - | - | - | - |
| 1778042405 | 32.22° C | 66% | 1007.5 hPa | - | - | - | - |
| 1778041805 | 31.67° C | 70% | 1007.5 hPa | - | - | - | - |
| 1778041204 | 31.67° C | 68% | 1007.9 hPa | - | - | - | - |
| 1778040605 | 31.11° C | 72% | 1007.9 hPa | - | - | - | - |
| 1778040005 | 31.11° C | 73% | 1007.9 hPa | - | - | - | - |
| 1778039406 | 31.11° C | 72% | 1008.2 hPa | - | - | - | - |
| 1778038805 | 30.56° C | 73% | 1008.3 hPa | - | - | - | - |
| 1778038205 | 31.11° C | 70% | 1008.4 hPa | - | - | - | - |
| 1778037605 | 31.67° C | 67% | 1008.4 hPa | - | - | - | - |
| 1778037005 | 31.11° C | 68% | 1008.5 hPa | - | - | - | - |
| 1778036405 | 31.11° C | 69% | 1008.6 hPa | - | - | - | - |
| 1778035805 | 31.11° C | 69% | 1008.8 hPa | - | - | - | - |
| 1778035204 | 31.67° C | 67% | 1009 hPa | - | - | - | - |
| 1778034604 | 30.56° C | 68% | 1009 hPa | - | - | - | - |
| 1778034006 | 31.67° C | 68% | 1009 hPa | - | - | - | - |
| 1778033405 | 31.11° C | 69% | 1009.1 hPa | - | - | - | - |
| 1778032805 | 30.56° C | 69% | 1009.3 hPa | - | - | - | - |
| 1778032205 | 31.11° C | 68% | 1009.1 hPa | - | - | - | - |
| 1778031605 | 30° C | 73% | 1009.3 hPa | - | - | - | - |
| 1778031005 | 29.44° C | 74% | 1009.2 hPa | - | - | - | - |
| 1778030405 | 29.44° C | 73% | 1009.4 hPa | - | - | - | - |
| 1778029805 | 29.44° C | 75% | 1009.1 hPa | - | - | - | - |
| 1778029205 | 28.89° C | 76% | 1009.2 hPa | - | - | - | - |
| 1778028604 | 28.33° C | 79% | 1009.1 hPa | - | - | - | - |
* Rain since midnight (hover to see other rain measurements)
** Current wind speed in m/s (hover to see current wind gust speed)